createdAt,value
2022-10-04T00:00:06.553Z,829.1930
2022-10-04T00:00:17.629Z,831.2580
2022-10-04T00:00:28.701Z,834.3750
2022-10-04T00:00:39.741Z,840.1510
2022-10-04T00:00:50.818Z,836.4660
2022-10-04T00:01:01.892Z,839.6230
2022-10-04T00:01:12.982Z,836.4660
2022-10-04T00:01:24.127Z,842.2710
2022-10-04T00:01:35.239Z,835.9420
2022-10-04T00:01:46.306Z,836.4660
2022-10-04T00:01:57.449Z,839.6230
2022-10-04T00:02:08.555Z,837.5160
2022-10-04T00:02:19.758Z,842.2710
2022-10-04T00:02:30.869Z,839.6230
2022-10-04T00:02:41.958Z,839.6230
2022-10-04T00:02:53.084Z,844.4020
2022-10-04T00:03:04.240Z,841.7400
2022-10-04T00:03:15.349Z,842.8030
2022-10-04T00:03:26.452Z,846.5440
2022-10-04T00:03:37.513Z,839.6230
2022-10-04T00:03:48.572Z,836.4660
2022-10-04T00:03:59.632Z,845.4720
2022-10-04T00:04:10.702Z,840.1510
2022-10-04T00:04:21.752Z,843.8690
2022-10-04T00:04:32.819Z,843.3350
2022-10-04T00:04:43.881Z,844.4020
2022-10-04T00:04:54.941Z,844.9370
2022-10-04T00:05:06.011Z,845.4720
2022-10-04T00:05:17.063Z,849.2370
2022-10-04T00:05:28.156Z,853.5810
2022-10-04T00:05:39.212Z,847.6190
2022-10-04T00:05:50.271Z,854.1270
2022-10-04T00:06:01.341Z,849.2370
2022-10-04T00:06:12.404Z,849.2370
2022-10-04T00:06:23.481Z,848.6970
2022-10-04T00:06:34.532Z,851.4030
2022-10-04T00:06:45.602Z,851.4030
2022-10-04T00:06:56.652Z,849.2370
2022-10-04T00:07:07.712Z,853.5810
2022-10-04T00:07:18.796Z,857.9690
2022-10-04T00:07:29.922Z,856.8680
2022-10-04T00:07:41.000Z,853.5810
2022-10-04T00:07:52.054Z,853.0350
2022-10-04T00:08:03.092Z,852.4900
2022-10-04T00:08:14.152Z,856.8680
2022-10-04T00:08:25.222Z,853.5810
2022-10-04T00:08:36.264Z,857.9690
2022-10-04T00:08:47.341Z,855.7690
2022-10-04T00:08:58.401Z,858.5210
2022-10-04T00:09:09.459Z,853.0350
2022-10-04T00:09:20.532Z,858.5210
2022-10-04T00:09:31.599Z,855.7690
2022-10-04T00:09:42.649Z,850.3180
2022-10-04T00:09:53.692Z,864.6370
2022-10-04T00:10:04.751Z,852.4900
2022-10-04T00:10:15.821Z,862.4030
2022-10-04T00:10:26.851Z,853.0350
2022-10-04T00:10:37.931Z,857.4180
2022-10-04T00:10:48.990Z,854.6730
2022-10-04T00:11:00.042Z,859.0730
2022-10-04T00:11:11.102Z,857.4180
2022-10-04T00:11:22.162Z,850.3180
2022-10-04T00:11:33.223Z,855.7690
2022-10-04T00:11:44.291Z,860.7350
2022-10-04T00:11:55.375Z,855.7690
2022-10-04T00:12:06.438Z,856.3180
2022-10-04T00:12:17.521Z,857.9690
2022-10-04T00:12:28.582Z,859.0730
2022-10-04T00:12:39.629Z,859.0730
2022-10-04T00:12:50.665Z,857.9690
2022-10-04T00:13:01.740Z,860.1800
2022-10-04T00:13:12.803Z,860.1800
2022-10-04T00:13:23.870Z,859.6270
2022-10-04T00:13:34.939Z,862.4030
2022-10-04T00:13:45.992Z,862.4030
2022-10-04T00:13:57.070Z,866.8830
2022-10-04T00:14:08.118Z,861.2900
2022-10-04T00:14:19.174Z,863.5190
2022-10-04T00:14:30.257Z,862.4030
2022-10-04T00:14:41.310Z,862.4030
2022-10-04T00:14:52.381Z,861.2900
2022-10-04T00:15:03.435Z,865.1980
2022-10-04T00:15:14.501Z,864.6370
2022-10-04T00:15:25.569Z,865.7590
2022-10-04T00:15:36.627Z,865.7590
2022-10-04T00:15:47.760Z,862.9610
2022-10-04T00:15:58.866Z,864.0780
2022-10-04T00:16:10.000Z,868.5750
2022-10-04T00:16:21.187Z,865.7590
2022-10-04T00:16:32.387Z,867.4460
2022-10-04T00:16:43.461Z,868.0100
2022-10-04T00:16:54.521Z,865.7590
2022-10-04T00:17:05.572Z,867.4460
2022-10-04T00:17:16.632Z,868.0100
2022-10-04T00:17:27.689Z,868.0100
2022-10-04T00:17:38.772Z,870.2740
2022-10-04T00:17:49.829Z,869.1410
2022-10-04T00:18:00.918Z,871.9790
2022-10-04T00:18:11.980Z,870.8410
2022-10-04T00:18:23.047Z,872.5490
2022-10-04T00:18:34.092Z,870.8410
2022-10-04T00:18:45.132Z,864.6370
2022-10-04T00:18:56.192Z,871.4100
2022-10-04T00:19:07.251Z,871.9790
2022-10-04T00:19:18.342Z,870.8410
2022-10-04T00:19:29.412Z,870.2740
2022-10-04T00:19:40.460Z,871.4100
2022-10-04T00:19:51.521Z,870.8410
2022-10-04T00:20:02.589Z,876.5590
2022-10-04T00:20:13.643Z,866.8830
2022-10-04T00:20:24.702Z,863.5190
2022-10-04T00:20:35.769Z,874.2630
2022-10-04T00:20:46.831Z,865.7590
2022-10-04T00:20:57.881Z,868.0100
2022-10-04T00:21:08.941Z,871.4100
2022-10-04T00:21:20.002Z,866.3210
2022-10-04T00:21:31.062Z,870.8410
2022-10-04T00:21:42.485Z,870.8410
2022-10-04T00:21:54.072Z,868.0100
2022-10-04T00:22:05.119Z,873.6910
2022-10-04T00:22:16.181Z,872.5490
2022-10-04T00:22:27.241Z,870.2740
2022-10-04T00:22:38.302Z,868.5750
2022-10-04T00:22:49.343Z,870.8410
2022-10-04T00:23:00.401Z,875.4100
2022-10-04T00:23:11.442Z,874.8360
2022-10-04T00:23:22.502Z,871.9790
2022-10-04T00:23:33.571Z,871.4100
2022-10-04T00:23:44.620Z,875.4100
2022-10-04T00:23:55.693Z,874.2630
2022-10-04T00:24:06.770Z,874.8360
2022-10-04T00:24:17.839Z,877.7120
2022-10-04T00:24:28.884Z,876.5590
2022-10-04T00:24:39.942Z,874.2630
2022-10-04T00:24:51.012Z,879.4470
2022-10-04T00:25:02.063Z,875.9840
2022-10-04T00:25:13.130Z,878.8680
2022-10-04T00:25:24.191Z,871.4100
2022-10-04T00:25:35.257Z,875.9840
2022-10-04T00:25:46.312Z,873.1200
2022-10-04T00:25:57.381Z,871.4100
2022-10-04T00:26:08.444Z,871.9790
2022-10-04T00:26:19.491Z,881.1880
2022-10-04T00:26:30.568Z,879.4470
2022-10-04T00:26:41.612Z,877.7120
2022-10-04T00:26:52.674Z,877.1350
2022-10-04T00:27:03.784Z,879.4470
2022-10-04T00:27:14.819Z,878.2890
2022-10-04T00:27:25.879Z,881.1880
2022-10-04T00:27:36.932Z,882.3530
2022-10-04T00:27:47.992Z,881.1880
2022-10-04T00:27:59.088Z,884.1060
2022-10-04T00:28:10.210Z,880.0260
2022-10-04T00:28:21.429Z,882.9370
2022-10-04T00:28:32.616Z,883.5210
2022-10-04T00:28:43.691Z,881.7700
2022-10-04T00:28:54.752Z,878.2890
2022-10-04T00:29:05.801Z,884.1060
2022-10-04T00:29:16.874Z,878.8680
2022-10-04T00:29:27.949Z,882.9370
2022-10-04T00:29:39.011Z,884.6920
2022-10-04T00:29:50.053Z,884.6920
2022-10-04T00:30:01.121Z,881.7700
2022-10-04T00:30:12.191Z,885.2790
2022-10-04T00:30:23.252Z,885.2790
2022-10-04T00:30:34.306Z,883.5210
2022-10-04T00:30:45.363Z,882.9370
2022-10-04T00:30:56.447Z,884.1060
2022-10-04T00:31:07.578Z,882.3530
2022-10-04T00:31:18.779Z,884.1060
2022-10-04T00:31:29.856Z,888.8150
2022-10-04T00:31:41.310Z,886.4540
2022-10-04T00:31:52.761Z,881.7700
2022-10-04T00:32:03.770Z,877.7120
2022-10-04T00:32:14.851Z,894.7720
2022-10-04T00:32:25.924Z,885.2790
2022-10-04T00:32:36.990Z,887.0430
2022-10-04T00:32:48.051Z,882.3530
2022-10-04T00:32:59.112Z,890.0000
2022-10-04T00:33:10.171Z,878.2890
2022-10-04T00:33:21.253Z,886.4540
2022-10-04T00:33:32.321Z,883.5210
2022-10-04T00:33:43.401Z,894.1730
2022-10-04T00:33:54.476Z,885.2790
2022-10-04T00:34:05.532Z,890.0000
2022-10-04T00:34:16.619Z,888.8150
2022-10-04T00:34:30.169Z,889.4070
2022-10-04T00:34:41.611Z,881.7700
2022-10-04T00:34:52.672Z,884.6920
2022-10-04T00:35:03.914Z,880.6070
2022-10-04T00:35:14.962Z,883.5210
2022-10-04T00:35:26.025Z,896.5750
2022-10-04T00:35:37.092Z,882.9370
2022-10-04T00:35:48.132Z,884.1060
2022-10-04T00:35:59.186Z,892.3800
2022-10-04T00:36:10.254Z,886.4540
2022-10-04T00:36:21.319Z,885.2790
2022-10-04T00:36:32.366Z,886.4540
2022-10-04T00:36:43.432Z,890.5940
2022-10-04T00:36:54.491Z,890.0000
2022-10-04T00:37:05.583Z,887.0430
2022-10-04T00:37:16.654Z,890.5940
2022-10-04T00:37:27.711Z,890.0000
2022-10-04T00:37:38.783Z,884.1060
2022-10-04T00:37:49.859Z,890.0000
2022-10-04T00:38:00.931Z,890.5940
2022-10-04T00:38:11.982Z,888.8150
2022-10-04T00:38:23.021Z,893.5740
2022-10-04T00:38:34.092Z,891.1880
2022-10-04T00:38:45.157Z,890.0000
2022-10-04T00:38:56.223Z,893.5740
2022-10-04T00:39:07.285Z,888.8150
2022-10-04T00:39:18.391Z,895.3720
2022-10-04T00:39:29.441Z,890.5940
2022-10-04T00:39:40.501Z,891.7840
2022-10-04T00:39:51.563Z,890.0000
2022-10-04T00:40:02.601Z,889.4070
2022-10-04T00:40:13.673Z,888.8150
2022-10-04T00:40:24.742Z,895.3720
2022-10-04T00:40:35.812Z,897.1770
2022-10-04T00:40:46.872Z,891.1880
2022-10-04T00:40:57.942Z,894.1730
2022-10-04T00:41:08.981Z,899.5960
2022-10-04T00:41:20.041Z,892.9770
2022-10-04T00:41:31.101Z,885.8660
2022-10-04T00:41:42.361Z,896.5750
2022-10-04T00:41:53.611Z,892.9770
2022-10-04T00:42:04.671Z,894.7720
2022-10-04T00:42:15.736Z,890.5940
2022-10-04T00:42:26.807Z,892.3800
2022-10-04T00:42:37.852Z,891.1880
2022-10-04T00:42:48.911Z,885.2790
2022-10-04T00:42:59.978Z,894.1730
2022-10-04T00:43:11.014Z,891.7840
2022-10-04T00:43:22.069Z,892.3800
2022-10-04T00:43:33.132Z,896.5750
2022-10-04T00:43:44.191Z,899.5960
2022-10-04T00:43:55.242Z,898.3850
2022-10-04T00:44:06.302Z,890.0000
2022-10-04T00:44:17.369Z,887.6330
2022-10-04T00:44:28.431Z,895.9730
2022-10-04T00:44:39.491Z,896.5750
2022-10-04T00:44:50.539Z,885.2790
2022-10-04T00:45:01.601Z,892.3800
2022-10-04T00:45:12.661Z,900.8100
2022-10-04T00:45:23.722Z,894.7720
2022-10-04T00:45:34.791Z,893.5740
2022-10-04T00:45:45.973Z,894.7720
2022-10-04T00:45:57.107Z,902.0270
2022-10-04T00:46:08.227Z,890.0000
2022-10-04T00:46:19.395Z,903.8590
2022-10-04T00:46:30.520Z,899.5960
2022-10-04T00:46:41.565Z,900.2020
2022-10-04T00:46:52.682Z,904.4720
2022-10-04T00:47:03.741Z,903.2480
2022-10-04T00:47:14.811Z,903.2480
2022-10-04T00:47:25.890Z,902.0270
2022-10-04T00:47:36.961Z,901.4180
2022-10-04T00:47:48.022Z,898.9900
2022-10-04T00:47:59.101Z,901.4180
2022-10-04T00:48:10.162Z,897.7810
2022-10-04T00:48:21.211Z,902.0270
2022-10-04T00:48:32.263Z,903.2480
2022-10-04T00:48:43.321Z,903.2480
2022-10-04T00:48:54.372Z,903.8590
2022-10-04T00:49:05.433Z,903.2480
2022-10-04T00:49:16.482Z,903.2480
2022-10-04T00:49:27.552Z,906.3140
2022-10-04T00:49:38.612Z,900.2020
2022-10-04T00:49:49.681Z,904.4720
2022-10-04T00:50:00.733Z,902.6370
2022-10-04T00:50:11.813Z,902.6370
2022-10-04T00:50:22.862Z,909.4010
2022-10-04T00:50:33.944Z,904.4720
2022-10-04T00:50:45.002Z,902.0270
2022-10-04T00:50:56.076Z,905.6990
2022-10-04T00:51:07.143Z,905.0850
2022-10-04T00:51:18.193Z,895.9730
2022-10-04T00:51:29.252Z,902.0270
2022-10-04T00:51:40.598Z,899.5960
2022-10-04T00:51:52.018Z,911.2630
2022-10-04T00:52:03.051Z,899.5960
2022-10-04T00:52:14.121Z,896.5750
2022-10-04T00:52:25.182Z,903.2480
2022-10-04T00:52:36.222Z,901.4180
2022-10-04T00:52:47.341Z,905.6990
2022-10-04T00:52:58.408Z,903.2480
2022-10-04T00:53:09.462Z,902.6370
2022-10-04T00:53:20.521Z,901.4180
2022-10-04T00:53:31.582Z,901.4180
2022-10-04T00:53:42.626Z,904.4720
2022-10-04T00:53:53.681Z,907.5460
2022-10-04T00:54:04.743Z,902.6370
2022-10-04T00:54:15.792Z,904.4720
2022-10-04T00:54:26.852Z,906.9290
2022-10-04T00:54:37.911Z,905.0850
2022-10-04T00:54:48.951Z,900.8100
2022-10-04T00:55:00.011Z,904.4720
2022-10-04T00:55:11.071Z,910.0200
2022-10-04T00:55:22.142Z,905.6990
2022-10-04T00:55:33.181Z,904.4720
2022-10-04T00:55:44.241Z,911.2630
2022-10-04T00:55:55.312Z,909.4010
2022-10-04T00:56:06.379Z,909.4010
2022-10-04T00:56:17.432Z,905.6990
2022-10-04T00:56:28.494Z,908.1630
2022-10-04T00:56:39.553Z,910.0200
2022-10-04T00:56:50.640Z,902.0270
2022-10-04T00:57:01.673Z,900.2020
2022-10-04T00:57:12.731Z,910.0200
2022-10-04T00:57:23.836Z,909.4010
2022-10-04T00:57:34.886Z,908.1630
2022-10-04T00:57:45.953Z,911.2630
2022-10-04T00:57:57.031Z,907.5460
2022-10-04T00:58:08.101Z,903.2480
2022-10-04T00:58:19.176Z,905.0850
2022-10-04T00:58:30.211Z,901.4180
2022-10-04T00:58:41.252Z,916.2660
2022-10-04T00:58:52.313Z,904.4720
2022-10-04T00:59:03.374Z,908.7810
2022-10-04T00:59:14.431Z,914.3840
2022-10-04T00:59:25.472Z,908.1630
2022-10-04T00:59:36.531Z,912.5090
2022-10-04T00:59:47.603Z,910.6410
2022-10-04T00:59:58.672Z,908.1630
2022-10-04T01:00:09.745Z,910.6410
2022-10-04T01:00:20.799Z,906.3140
2022-10-04T01:00:31.861Z,909.4010
2022-10-04T01:00:42.982Z,905.0850
2022-10-04T01:00:54.183Z,911.2630
2022-10-04T01:01:05.316Z,910.0200
2022-10-04T01:01:16.468Z,910.0200
2022-10-04T01:01:27.596Z,906.3140
2022-10-04T01:01:38.710Z,905.6990
2022-10-04T01:01:49.774Z,903.2480
2022-10-04T01:02:00.867Z,904.4720
2022-10-04T01:02:11.938Z,906.9290
2022-10-04T01:02:23.048Z,904.4720
2022-10-04T01:02:34.194Z,906.3140
2022-10-04T01:02:45.292Z,909.4010
2022-10-04T01:02:56.331Z,902.0270
2022-10-04T01:03:07.431Z,906.9290
2022-10-04T01:03:18.481Z,905.6990
2022-10-04T01:03:29.531Z,906.9290
2022-10-04T01:03:40.609Z,905.6990
2022-10-04T01:03:51.652Z,905.0850
2022-10-04T01:04:02.711Z,906.9290
2022-10-04T01:04:13.762Z,910.0200
2022-10-04T01:04:24.822Z,908.1630
2022-10-04T01:04:35.893Z,906.3140
2022-10-04T01:04:46.942Z,908.7810
2022-10-04T01:04:58.002Z,906.9290
2022-10-04T01:05:09.069Z,915.6380
2022-10-04T01:05:20.123Z,913.1330
2022-10-04T01:05:31.174Z,907.5460
2022-10-04T01:05:42.249Z,913.7580
2022-10-04T01:05:53.323Z,908.1630
2022-10-04T01:06:04.401Z,906.9290
2022-10-04T01:06:15.461Z,911.2630
2022-10-04T01:06:26.536Z,905.0850
2022-10-04T01:06:37.682Z,908.1630
2022-10-04T01:06:48.744Z,909.4010
2022-10-04T01:06:59.812Z,901.4180
2022-10-04T01:07:10.882Z,911.8850
2022-10-04T01:07:21.942Z,902.6370
2022-10-04T01:07:33.014Z,906.9290
2022-10-04T01:07:44.069Z,909.4010
2022-10-04T01:07:55.122Z,903.2480
2022-10-04T01:08:06.171Z,914.3840
2022-10-04T01:08:17.251Z,911.2630
2022-10-04T01:08:28.312Z,913.1330
2022-10-04T01:08:39.372Z,910.0200
2022-10-04T01:08:50.429Z,906.3140
2022-10-04T01:09:01.499Z,914.3840
2022-10-04T01:09:12.561Z,913.1330
2022-10-04T01:09:23.621Z,916.2660
2022-10-04T01:09:34.699Z,911.2630
2022-10-04T01:09:45.762Z,915.0100
2022-10-04T01:09:56.801Z,915.0100
2022-10-04T01:10:07.866Z,913.1330
2022-10-04T01:10:18.913Z,913.7580
2022-10-04T01:10:29.982Z,915.0100
2022-10-04T01:10:41.041Z,912.5090
2022-10-04T01:10:52.103Z,911.8850
2022-10-04T01:11:03.181Z,913.1330
2022-10-04T01:11:14.231Z,911.2630
2022-10-04T01:11:25.291Z,906.9290
2022-10-04T01:11:36.363Z,906.3140
2022-10-04T01:11:47.415Z,912.5090
2022-10-04T01:11:58.480Z,913.1330
2022-10-04T01:12:09.512Z,913.1330
2022-10-04T01:12:20.559Z,915.6380
2022-10-04T01:12:31.636Z,914.3840
2022-10-04T01:12:42.671Z,910.0200
2022-10-04T01:12:53.713Z,911.8850
2022-10-04T01:13:04.791Z,916.8960
2022-10-04T01:13:15.860Z,906.3140
2022-10-04T01:13:26.941Z,906.9290
2022-10-04T01:13:38.002Z,912.5090
2022-10-04T01:13:49.072Z,915.0100
2022-10-04T01:14:00.138Z,916.8960
2022-10-04T01:14:11.189Z,909.4010
2022-10-04T01:14:22.251Z,908.1630
2022-10-04T01:14:33.318Z,911.2630
2022-10-04T01:14:44.374Z,911.2630
2022-10-04T01:14:55.441Z,906.9290
2022-10-04T01:15:06.501Z,907.5460
2022-10-04T01:15:17.582Z,913.1330
2022-10-04T01:15:28.652Z,908.1630
2022-10-04T01:15:39.799Z,908.7810
2022-10-04T01:15:50.962Z,915.6380
2022-10-04T01:16:02.138Z,910.6410
2022-10-04T01:16:13.279Z,912.5090
2022-10-04T01:16:24.414Z,916.2660
2022-10-04T01:16:35.491Z,906.9290
2022-10-04T01:16:46.557Z,915.6380
2022-10-04T01:16:57.599Z,911.8850
2022-10-04T01:17:08.651Z,916.2660
2022-10-04T01:17:19.723Z,910.6410
2022-10-04T01:17:30.772Z,916.8960
2022-10-04T01:17:41.842Z,915.0100
2022-10-04T01:17:52.905Z,915.0100
2022-10-04T01:18:07.424Z,916.2660
2022-10-04T01:18:20.926Z,895.9730
2022-10-04T01:18:32.004Z,903.2480
2022-10-04T01:18:43.061Z,905.6990
2022-10-04T01:18:54.101Z,900.8100
2022-10-04T01:19:05.171Z,906.9290
2022-10-04T01:19:16.232Z,900.8100
2022-10-04T01:19:27.291Z,908.1630
2022-10-04T01:19:38.362Z,907.5460
2022-10-04T01:19:49.412Z,908.1630
2022-10-04T01:20:00.471Z,903.2480
2022-10-04T01:20:11.543Z,906.9290
2022-10-04T01:20:22.581Z,909.4010
2022-10-04T01:20:33.641Z,911.8850
2022-10-04T01:20:44.692Z,908.1630
2022-10-04T01:20:55.755Z,908.1630
2022-10-04T01:21:06.810Z,909.4010
2022-10-04T01:21:17.871Z,910.6410
2022-10-04T01:21:28.933Z,908.1630
2022-10-04T01:21:40.347Z,916.2660
2022-10-04T01:21:51.703Z,906.9290
2022-10-04T01:22:02.767Z,910.6410
2022-10-04T01:22:13.822Z,908.7810
2022-10-04T01:22:24.852Z,908.1630
2022-10-04T01:22:35.924Z,910.6410
2022-10-04T01:22:47.015Z,906.9290
2022-10-04T01:22:58.079Z,910.0200
2022-10-04T01:23:09.159Z,906.9290
2022-10-04T01:23:20.216Z,910.6410
2022-10-04T01:23:31.281Z,909.4010
2022-10-04T01:23:42.363Z,913.1330
2022-10-04T01:23:53.426Z,908.7810
2022-10-04T01:24:04.472Z,910.0200
2022-10-04T01:24:15.541Z,913.7580
2022-10-04T01:24:26.611Z,907.5460
2022-10-04T01:24:37.682Z,913.1330
2022-10-04T01:24:48.722Z,912.5090
2022-10-04T01:24:59.792Z,913.7580
2022-10-04T01:25:10.869Z,912.5090
2022-10-04T01:25:21.942Z,913.1330
2022-10-04T01:25:33.001Z,913.7580
2022-10-04T01:25:44.061Z,911.8850
2022-10-04T01:25:55.131Z,911.8850
2022-10-04T01:26:06.205Z,915.6380
2022-10-04T01:26:17.254Z,909.4010
2022-10-04T01:26:28.312Z,908.7810
2022-10-04T01:26:39.352Z,915.0100
2022-10-04T01:26:50.424Z,912.5090
2022-10-04T01:27:01.482Z,918.1570
2022-10-04T01:27:12.532Z,915.6380
2022-10-04T01:27:23.602Z,909.4010
2022-10-04T01:27:34.712Z,913.7580
2022-10-04T01:27:45.752Z,916.8960
2022-10-04T01:27:56.875Z,918.7890
2022-10-04T01:28:08.035Z,913.1330
2022-10-04T01:28:19.099Z,916.8960
2022-10-04T01:28:30.232Z,912.5090
2022-10-04T01:28:41.291Z,910.6410
2022-10-04T01:28:52.361Z,913.1330
2022-10-04T01:29:03.432Z,913.1330
2022-10-04T01:29:14.507Z,913.1330
2022-10-04T01:29:25.559Z,914.3840
2022-10-04T01:29:36.611Z,913.7580
2022-10-04T01:29:47.672Z,906.3140
2022-10-04T01:29:58.732Z,910.6410
2022-10-04T01:30:09.771Z,911.8850
2022-10-04T01:30:20.852Z,913.1330
2022-10-04T01:30:31.920Z,912.5090
2022-10-04T01:30:42.971Z,906.9290
2022-10-04T01:30:54.032Z,911.8850
2022-10-04T01:31:05.167Z,908.7810
2022-10-04T01:31:16.287Z,913.1330
2022-10-04T01:31:27.451Z,915.6380
2022-10-04T01:31:38.597Z,911.2630
2022-10-04T01:31:49.708Z,912.5090
2022-10-04T01:32:00.770Z,913.1330
2022-10-04T01:32:11.811Z,915.6380
2022-10-04T01:32:22.853Z,911.8850
2022-10-04T01:32:33.892Z,915.6380
2022-10-04T01:32:45.526Z,913.1330
2022-10-04T01:32:56.621Z,913.1330
2022-10-04T01:33:07.700Z,913.1330
2022-10-04T01:33:18.772Z,909.4010
2022-10-04T01:33:29.831Z,915.0100
2022-10-04T01:33:40.908Z,911.2630
2022-10-04T01:33:51.988Z,910.6410
2022-10-04T01:34:03.073Z,911.8850
2022-10-04T01:34:14.133Z,904.4720
2022-10-04T01:34:25.238Z,916.2660
2022-10-04T01:34:36.302Z,910.6410
2022-10-04T01:34:47.383Z,912.5090
2022-10-04T01:34:58.443Z,906.9290
2022-10-04T01:35:09.498Z,909.4010
2022-10-04T01:35:20.554Z,910.6410
2022-10-04T01:35:31.611Z,915.6380
2022-10-04T01:35:42.680Z,916.8960
2022-10-04T01:35:53.741Z,913.7580
2022-10-04T01:36:04.782Z,916.8960
2022-10-04T01:36:15.846Z,913.7580
2022-10-04T01:36:26.912Z,915.6380
2022-10-04T01:36:38.016Z,911.2630
2022-10-04T01:36:49.091Z,923.8750
2022-10-04T01:37:00.195Z,915.6380
2022-10-04T01:37:11.232Z,918.7890
2022-10-04T01:37:22.281Z,916.8960
2022-10-04T01:37:33.331Z,913.7580
2022-10-04T01:37:44.402Z,916.8960
2022-10-04T01:37:55.487Z,920.6900
2022-10-04T01:38:06.551Z,917.5260
2022-10-04T01:38:17.612Z,918.7890
2022-10-04T01:38:28.694Z,919.4210
2022-10-04T01:38:39.737Z,918.1570
2022-10-04T01:38:50.791Z,912.5090
2022-10-04T01:39:01.854Z,911.8850
2022-10-04T01:39:13.040Z,918.1570
2022-10-04T01:39:24.112Z,915.6380
2022-10-04T01:39:35.191Z,918.1570
2022-10-04T01:39:46.222Z,918.1570
2022-10-04T01:39:57.291Z,916.8960
2022-10-04T01:40:08.353Z,910.6410
2022-10-04T01:40:19.423Z,915.6380
2022-10-04T01:40:30.473Z,916.8960
2022-10-04T01:40:41.521Z,916.8960
2022-10-04T01:40:52.561Z,916.8960
2022-10-04T01:41:03.621Z,918.1570
2022-10-04T01:41:14.682Z,921.3250
2022-10-04T01:41:25.739Z,921.3250
2022-10-04T01:41:36.813Z,916.8960
2022-10-04T01:41:47.881Z,915.0100
2022-10-04T01:41:58.942Z,919.4210
2022-10-04T01:42:09.992Z,920.6900
2022-10-04T01:42:21.052Z,908.7810
2022-10-04T01:42:32.235Z,920.0550
2022-10-04T01:42:43.334Z,920.6900
2022-10-04T01:42:54.371Z,915.6380
2022-10-04T01:43:05.432Z,913.1330
2022-10-04T01:43:16.490Z,919.4210
2022-10-04T01:43:27.567Z,916.8960
2022-10-04T01:43:38.631Z,919.4210
2022-10-04T01:43:49.709Z,922.5980
2022-10-04T01:44:00.775Z,915.6380
2022-10-04T01:44:11.813Z,917.5260
2022-10-04T01:44:22.881Z,919.4210
2022-10-04T01:44:33.952Z,918.7890
2022-10-04T01:44:45.011Z,914.3840
2022-10-04T01:44:56.082Z,920.6900
2022-10-04T01:45:07.148Z,918.1570
2022-10-04T01:45:18.202Z,911.8850
2022-10-04T01:45:29.252Z,915.6380
2022-10-04T01:45:40.311Z,919.4210
2022-10-04T01:45:51.382Z,918.7890
2022-10-04T01:46:02.541Z,920.6900
2022-10-04T01:46:13.740Z,921.3250
2022-10-04T01:46:24.861Z,916.2660
2022-10-04T01:46:35.999Z,916.2660
2022-10-04T01:46:47.162Z,919.4210
2022-10-04T01:46:58.252Z,916.8960
2022-10-04T01:47:09.312Z,923.2370
2022-10-04T01:47:20.372Z,919.4210
2022-10-04T01:47:31.440Z,918.7890
2022-10-04T01:47:42.481Z,915.0100
2022-10-04T01:47:53.549Z,915.0100
2022-10-04T01:48:04.614Z,918.1570
2022-10-04T01:48:15.699Z,914.3840
2022-10-04T01:48:26.780Z,918.7890
2022-10-04T01:48:37.832Z,921.9610
2022-10-04T01:48:48.890Z,920.6900
2022-10-04T01:48:59.952Z,921.3250
2022-10-04T01:49:11.011Z,919.4210
2022-10-04T01:49:22.072Z,920.6900
2022-10-04T01:49:33.150Z,919.4210
2022-10-04T01:49:44.211Z,919.4210
2022-10-04T01:49:55.284Z,919.4210
2022-10-04T01:50:07.619Z,918.7890
2022-10-04T01:50:18.907Z,915.6380
2022-10-04T01:50:29.962Z,917.5260
2022-10-04T01:50:41.031Z,918.1570
2022-10-04T01:50:52.111Z,915.6380
2022-10-04T01:51:03.162Z,923.2370
2022-10-04T01:51:14.220Z,918.7890
2022-10-04T01:51:25.282Z,918.7890
2022-10-04T01:51:36.343Z,916.8960
2022-10-04T01:51:47.394Z,918.1570
2022-10-04T01:51:58.451Z,920.0550
2022-10-04T01:52:09.491Z,920.0550
2022-10-04T01:52:20.561Z,917.5260
2022-10-04T01:52:31.651Z,920.6900
2022-10-04T01:52:42.712Z,914.3840
2022-10-04T01:52:53.811Z,917.5260
2022-10-04T01:53:04.891Z,919.4210
2022-10-04T01:53:15.934Z,915.6380
2022-10-04T01:53:27.014Z,920.0550
2022-10-04T01:53:38.081Z,919.4210
2022-10-04T01:53:49.143Z,922.5980
2022-10-04T01:54:00.195Z,917.5260
2022-10-04T01:54:11.252Z,922.5980
2022-10-04T01:54:22.322Z,918.1570
2022-10-04T01:54:33.392Z,924.5150
2022-10-04T01:54:44.473Z,919.4210
2022-10-04T01:54:55.531Z,920.6900
2022-10-04T01:55:06.572Z,922.5980
2022-10-04T01:55:17.632Z,923.8750
2022-10-04T01:55:28.692Z,920.6900
2022-10-04T01:55:39.753Z,923.8750
2022-10-04T01:55:50.814Z,923.8750
2022-10-04T01:56:01.891Z,921.9610
2022-10-04T01:56:13.001Z,922.5980
2022-10-04T01:56:24.061Z,920.6900
2022-10-04T01:56:35.124Z,925.7980
2022-10-04T01:56:46.212Z,925.7980
2022-10-04T01:56:57.262Z,921.3250
2022-10-04T01:57:08.330Z,921.3250
2022-10-04T01:57:19.394Z,925.1560
2022-10-04T01:57:30.443Z,923.2370
2022-10-04T01:57:41.502Z,921.9610
2022-10-04T01:57:52.585Z,916.8960
2022-10-04T01:58:03.602Z,913.7580
2022-10-04T01:58:14.662Z,924.5150
2022-10-04T01:58:25.732Z,923.2370
2022-10-04T01:58:36.773Z,925.1560
2022-10-04T01:58:47.841Z,916.8960
2022-10-04T01:58:58.901Z,920.6900
2022-10-04T01:59:09.971Z,923.2370
2022-10-04T01:59:21.020Z,923.2370
2022-10-04T01:59:32.081Z,918.1570
2022-10-04T01:59:43.162Z,921.3250
2022-10-04T01:59:54.213Z,916.2660
2022-10-04T02:00:05.272Z,923.2370
2022-10-04T02:00:16.331Z,916.2660
2022-10-04T02:00:27.393Z,925.7980
2022-10-04T02:00:38.447Z,920.6900
2022-10-04T02:00:49.527Z,927.0830
2022-10-04T02:01:00.625Z,926.4400
2022-10-04T02:01:11.748Z,924.5150
2022-10-04T02:01:22.876Z,923.8750
2022-10-04T02:01:33.989Z,916.8960
2022-10-04T02:01:45.377Z,918.7890
2022-10-04T02:01:56.834Z,922.5980
2022-10-04T02:02:07.881Z,918.7890
2022-10-04T02:02:18.950Z,918.1570
2022-10-04T02:02:30.011Z,923.8750
2022-10-04T02:02:41.051Z,916.8960
2022-10-04T02:02:52.114Z,928.3730
2022-10-04T02:03:03.181Z,925.7980
2022-10-04T02:03:14.221Z,923.2370
2022-10-04T02:03:25.380Z,921.9610
2022-10-04T02:03:36.457Z,918.1570
2022-10-04T02:03:47.494Z,923.2370
2022-10-04T02:03:58.551Z,924.5150
2022-10-04T02:04:09.683Z,921.9610
2022-10-04T02:04:22.434Z,925.1560
2022-10-04T02:04:33.950Z,921.3250
2022-10-04T02:04:45.019Z,918.1570
2022-10-04T02:04:56.090Z,922.5980
2022-10-04T02:05:07.201Z,919.4210
2022-10-04T02:05:18.281Z,915.6380
2022-10-04T02:05:29.342Z,921.3250
2022-10-04T02:05:40.407Z,927.0830
2022-10-04T02:05:51.459Z,923.2370
2022-10-04T02:06:02.490Z,924.5150
2022-10-04T02:06:13.553Z,919.4210
2022-10-04T02:06:24.613Z,918.1570
2022-10-04T02:06:35.672Z,920.0550
2022-10-04T02:06:46.731Z,927.0830
2022-10-04T02:06:57.801Z,930.3140
2022-10-04T02:07:08.852Z,924.5150
2022-10-04T02:07:19.912Z,927.0830
2022-10-04T02:07:30.981Z,928.3730
2022-10-04T02:07:42.053Z,929.6660
2022-10-04T02:07:53.112Z,925.1560
2022-10-04T02:08:04.171Z,925.7980
2022-10-04T02:08:15.224Z,921.9610
2022-10-04T02:08:26.291Z,925.1560
2022-10-04T02:08:37.366Z,922.5980
2022-10-04T02:08:48.421Z,919.4210
2022-10-04T02:08:59.492Z,927.7280
2022-10-04T02:09:10.551Z,931.6120
2022-10-04T02:09:21.592Z,933.5660
2022-10-04T02:09:32.669Z,925.1560
2022-10-04T02:09:43.748Z,926.4400
2022-10-04T02:09:54.800Z,928.3730
2022-10-04T02:10:05.863Z,925.7980
2022-10-04T02:10:16.941Z,928.3730